createdAt,value
2019-05-26T00:04:35.801Z,8.95
2019-05-26T00:10:40.354Z,9.11
2019-05-26T00:16:44.912Z,8.84
2019-05-26T00:22:49.497Z,8.86
2019-05-26T00:29:07.642Z,8.80
2019-05-26T00:35:12.275Z,8.96
2019-05-26T00:41:16.835Z,8.69
2019-05-26T00:47:21.478Z,8.48
2019-05-26T00:53:26.743Z,8.51
2019-05-26T00:59:31.365Z,8.61
2019-05-26T01:05:35.908Z,8.57
2019-05-26T01:11:40.466Z,8.45
2019-05-26T01:17:45.067Z,8.47
2019-05-26T01:23:49.690Z,8.40
2019-05-26T01:29:54.236Z,8.38
2019-05-26T01:35:59.141Z,8.47
2019-05-26T01:42:03.706Z,8.43
2019-05-26T01:48:09.070Z,8.62
2019-05-26T01:54:13.627Z,8.50
2019-05-26T02:00:18.884Z,8.43
2019-05-26T02:06:23.578Z,8.35
2019-05-26T02:12:28.133Z,8.31
2019-05-26T02:18:32.721Z,8.40
2019-05-26T02:24:37.313Z,8.28
2019-05-26T02:30:41.874Z,8.28
2019-05-26T02:36:46.523Z,8.39
2019-05-26T02:42:51.046Z,8.21
2019-05-26T02:48:55.602Z,8.30
2019-05-26T02:55:00.172Z,8.45
2019-05-26T03:01:04.798Z,8.37
2019-05-26T03:07:09.988Z,8.25
2019-05-26T03:13:17.150Z,8.27
2019-05-26T03:19:23.283Z,8.25
2019-05-26T03:25:29.382Z,8.24
2019-05-26T03:31:33.984Z,8.13
2019-05-26T03:37:38.745Z,8.00
2019-05-26T03:43:43.354Z,8.04
2019-05-26T03:49:48.036Z,7.91
2019-05-26T03:55:52.611Z,8.01
2019-05-26T04:01:57.896Z,8.43
2019-05-26T04:08:05.109Z,8.28
2019-05-26T04:14:08.974Z,8.25
2019-05-26T04:20:13.765Z,8.35
2019-05-26T04:26:18.318Z,8.45
2019-05-26T04:32:22.943Z,8.69
2019-05-26T04:38:27.497Z,8.97
2019-05-26T04:44:32.065Z,8.99
2019-05-26T04:50:36.630Z,9.07
2019-05-26T04:56:41.339Z,9.07
2019-05-26T05:02:45.895Z,9.47
2019-05-26T05:08:50.535Z,9.29
2019-05-26T05:14:55.286Z,9.46
2019-05-26T05:20:59.827Z,9.69
2019-05-26T05:27:04.461Z,10.03
2019-05-26T05:33:09.097Z,10.07
2019-05-26T05:39:13.653Z,10.23
2019-05-26T05:45:19.477Z,10.55
2019-05-26T05:51:24.047Z,10.93
2019-05-26T05:57:28.611Z,11.41
2019-05-26T06:03:33.162Z,11.90
2019-05-26T06:09:37.750Z,12.00
2019-05-26T06:15:42.320Z,12.63
2019-05-26T06:21:46.894Z,13.05
2019-05-26T06:27:51.720Z,13.42
2019-05-26T06:33:56.330Z,13.85
2019-05-26T06:40:01.124Z,14.47
2019-05-26T06:46:06.323Z,14.79
2019-05-26T06:52:11.008Z,15.17
2019-05-26T06:58:15.572Z,15.67
2019-05-26T07:04:20.301Z,15.95
2019-05-26T07:10:24.859Z,16.08
2019-05-26T07:16:37.952Z,16.58
2019-05-26T07:22:36.958Z,16.74
2019-05-26T07:28:41.541Z,17.18
2019-05-26T07:34:46.164Z,17.61
2019-05-26T07:40:50.812Z,18.17
2019-05-26T07:46:55.394Z,18.79
2019-05-26T07:52:59.957Z,19.04
2019-05-26T07:59:04.757Z,19.08
2019-05-26T08:05:09.832Z,19.52
2019-05-26T08:11:14.479Z,19.42
2019-05-26T08:17:19.041Z,19.91
2019-05-26T08:23:23.735Z,19.34
2019-05-26T08:29:28.442Z,19.30
2019-05-26T08:35:34.421Z,18.83
2019-05-26T08:41:39.203Z,18.73
2019-05-26T08:47:44.041Z,18.59
2019-05-26T08:53:48.633Z,18.63
2019-05-26T08:59:53.197Z,19.07
2019-05-26T09:05:57.757Z,19.01
2019-05-26T09:12:02.354Z,19.70
2019-05-26T09:18:06.995Z,20.54
2019-05-26T09:24:11.676Z,19.73
2019-05-26T09:30:17.888Z,20.12
2019-05-26T09:36:22.452Z,20.41
2019-05-26T09:42:27.187Z,21.16
2019-05-26T09:48:31.746Z,20.43
2019-05-26T09:54:36.395Z,20.67
2019-05-26T10:00:41.038Z,21.20
2019-05-26T10:06:45.627Z,20.92
2019-05-26T10:12:50.232Z,21.45
2019-05-26T10:18:54.811Z,21.43
2019-05-26T10:24:59.374Z,21.29
2019-05-26T10:31:04.090Z,21.25
2019-05-26T10:37:08.747Z,21.89
2019-05-26T10:43:13.309Z,21.93
2019-05-26T10:49:18.156Z,22.58
2019-05-26T10:55:22.791Z,22.87
2019-05-26T11:01:27.374Z,23.25
2019-05-26T11:07:32.020Z,23.61
2019-05-26T11:13:36.584Z,23.10
2019-05-26T11:19:41.148Z,23.38
2019-05-26T11:25:45.722Z,23.39
2019-05-26T11:31:50.352Z,23.87
2019-05-26T11:37:55.695Z,24.60
2019-05-26T11:44:00.261Z,25.25
2019-05-26T11:50:07.411Z,23.72
2019-05-26T11:56:12.034Z,23.03
2019-05-26T12:02:16.613Z,22.67
2019-05-26T12:08:21.190Z,22.07
2019-05-26T12:14:34.930Z,22.04
2019-05-26T12:20:32.142Z,21.83
2019-05-26T12:26:36.705Z,21.47
2019-05-26T12:32:41.354Z,21.26
2019-05-26T12:38:51.787Z,21.12
2019-05-26T12:44:56.355Z,20.97
2019-05-26T12:51:00.941Z,20.94
2019-05-26T12:57:05.650Z,20.96
2019-05-26T13:03:10.285Z,21.22
2019-05-26T13:09:15.367Z,21.31
2019-05-26T13:15:21.038Z,21.03
2019-05-26T13:21:25.617Z,20.86
2019-05-26T13:27:30.179Z,20.69
2019-05-26T13:33:34.749Z,20.75
2019-05-26T13:39:39.315Z,20.59
2019-05-26T13:45:43.888Z,20.83
2019-05-26T13:51:50.507Z,21.06
2019-05-26T13:57:54.886Z,21.45
2019-05-26T14:03:59.462Z,21.39
2019-05-26T14:10:05.542Z,21.65
2019-05-26T14:16:10.186Z,21.72
2019-05-26T14:22:14.743Z,21.79
2019-05-26T14:28:19.310Z,21.96
2019-05-26T14:34:23.882Z,21.86
2019-05-26T14:40:29.149Z,22.26
2019-05-26T14:46:33.694Z,22.16
2019-05-26T14:52:38.475Z,22.62
2019-05-26T14:58:43.044Z,22.07
2019-05-26T15:04:47.613Z,21.96
2019-05-26T15:10:52.251Z,22.02
2019-05-26T15:16:56.815Z,22.64
2019-05-26T15:23:01.396Z,22.79
2019-05-26T15:29:06.106Z,22.84
2019-05-26T15:35:11.180Z,22.48
2019-05-26T15:41:15.733Z,22.22
2019-05-26T15:47:20.296Z,22.03
2019-05-26T15:53:24.852Z,21.82
2019-05-26T15:59:29.488Z,22.19
2019-05-26T16:05:34.139Z,22.15
2019-05-26T16:11:38.703Z,21.87
2019-05-26T16:17:43.271Z,22.01
2019-05-26T16:23:47.838Z,21.92
2019-05-26T16:29:52.403Z,21.98
2019-05-26T16:35:56.973Z,21.84
2019-05-26T16:42:01.530Z,21.61
2019-05-26T16:48:06.237Z,21.21
2019-05-26T16:54:10.794Z,21.34
2019-05-26T17:00:15.719Z,21.51
2019-05-26T17:06:20.281Z,21.35
2019-05-26T17:12:24.867Z,21.14
2019-05-26T17:18:29.438Z,21.26
2019-05-26T17:24:34.002Z,21.02
2019-05-26T17:30:38.689Z,20.93
2019-05-26T17:36:43.248Z,20.87
2019-05-26T17:42:47.807Z,20.94
2019-05-26T17:48:52.377Z,20.86
2019-05-26T17:54:56.951Z,20.76
2019-05-26T18:01:01.579Z,20.72
2019-05-26T18:07:06.485Z,20.56
2019-05-26T18:13:11.048Z,20.16
2019-05-26T18:19:15.683Z,19.97
2019-05-26T18:25:20.431Z,19.88
2019-05-26T18:31:28.719Z,19.82
2019-05-26T18:37:31.559Z,19.84
2019-05-26T18:43:36.121Z,19.61
2019-05-26T18:49:40.766Z,19.40
2019-05-26T18:55:45.315Z,19.34
2019-05-26T19:01:49.891Z,19.51
2019-05-26T19:07:54.733Z,19.41
2019-05-26T19:13:59.354Z,19.39
2019-05-26T19:20:16.038Z,19.01
2019-05-26T19:26:14.107Z,18.91
2019-05-26T19:32:18.740Z,18.99
2019-05-26T19:38:23.310Z,19.13
2019-05-26T19:44:27.889Z,18.96
2019-05-26T19:50:32.579Z,18.99
2019-05-26T19:56:37.150Z,18.97
2019-05-26T20:02:41.781Z,19.18
2019-05-26T20:08:46.354Z,19.24
2019-05-26T20:14:50.915Z,19.31
2019-05-26T20:20:55.463Z,19.32
2019-05-26T20:27:00.046Z,19.12
2019-05-26T20:33:04.699Z,19.12
2019-05-26T20:39:10.424Z,19.06
2019-05-26T20:45:15.640Z,19.24
2019-05-26T20:51:20.344Z,19.06
2019-05-26T20:57:24.987Z,18.86
2019-05-26T21:03:29.614Z,19.01
2019-05-26T21:09:34.177Z,18.94
2019-05-26T21:15:38.787Z,19.07
2019-05-26T21:21:43.373Z,18.92
2019-05-26T21:27:47.958Z,18.99
2019-05-26T21:33:52.543Z,18.70
2019-05-26T21:39:57.147Z,18.84
2019-05-26T21:46:01.721Z,18.57
2019-05-26T21:52:06.698Z,18.49
2019-05-26T21:58:11.268Z,18.31
2019-05-26T22:04:15.824Z,18.32
2019-05-26T22:10:20.536Z,18.11
2019-05-26T22:16:25.180Z,18.25
2019-05-26T22:22:29.805Z,18.22
2019-05-26T22:28:34.437Z,18.39
2019-05-26T22:34:39.048Z,18.39
2019-05-26T22:40:43.613Z,18.36
2019-05-26T22:46:48.183Z,18.10
2019-05-26T22:52:52.740Z,18.35
2019-05-26T22:58:57.331Z,18.20
2019-05-26T23:05:01.898Z,18.13
2019-05-26T23:11:06.537Z,17.99
2019-05-26T23:17:11.113Z,17.91
2019-05-26T23:23:15.772Z,17.76
2019-05-26T23:29:20.325Z,17.98
2019-05-26T23:35:24.886Z,17.89
2019-05-26T23:41:29.463Z,17.95
2019-05-26T23:47:34.032Z,17.81
2019-05-26T23:53:38.594Z,17.93
2019-05-26T23:59:43.154Z,17.71
